createdAt,value
2017-09-07T00:02:11.384Z,97239.47
2017-09-07T00:04:39.135Z,97239.05
2017-09-07T00:07:06.714Z,97234.77
2017-09-07T00:09:34.298Z,97233.50
2017-09-07T00:12:01.887Z,97238.60
2017-09-07T00:14:29.491Z,97236.48
2017-09-07T00:16:57.079Z,97230.95
2017-09-07T00:19:25.087Z,97230.52
2017-09-07T00:21:52.714Z,97226.27
2017-09-07T00:24:21.470Z,97232.22
2017-09-07T00:26:49.144Z,97230.08
2017-09-07T00:29:17.093Z,97222.84
2017-09-07T00:31:44.642Z,97220.73
2017-09-07T00:34:12.209Z,97217.31
2017-09-07T00:36:39.821Z,97219.03
2017-09-07T00:39:07.395Z,97213.51
2017-09-07T00:41:34.989Z,97212.22
2017-09-07T00:44:03.756Z,97212.64
2017-09-07T00:46:31.345Z,97214.34
2017-09-07T00:48:58.916Z,97213.09
2017-09-07T00:51:26.503Z,97213.50
2017-09-07T00:53:54.101Z,97217.34
2017-09-07T00:56:21.629Z,97218.61
2017-09-07T00:58:49.212Z,97213.08
2017-09-07T01:01:17.219Z,97209.67
2017-09-07T01:03:46.097Z,97208.83
2017-09-07T01:06:13.675Z,97207.09
2017-09-07T01:08:41.217Z,97194.32
2017-09-07T01:11:08.819Z,97197.76
2017-09-07T01:13:36.477Z,97195.59
2017-09-07T01:16:04.041Z,97193.06
2017-09-07T01:18:31.644Z,97190.92
2017-09-07T01:20:59.210Z,97189.64
2017-09-07T01:23:26.967Z,97196.90
2017-09-07T01:25:54.554Z,97187.95
2017-09-07T01:28:22.138Z,97194.77
2017-09-07T01:30:49.718Z,97188.37
2017-09-07T01:33:17.294Z,97185.83
2017-09-07T01:35:44.889Z,97177.75
2017-09-07T01:38:13.425Z,97181.56
2017-09-07T01:40:42.030Z,97179.84
2017-09-07T01:43:09.718Z,97181.58
2017-09-07T01:45:37.327Z,97181.14
2017-09-07T01:48:16.668Z,97180.29
2017-09-07T01:50:44.651Z,97182.42
2017-09-07T01:53:12.274Z,97183.72
2017-09-07T01:55:39.845Z,97179.44
2017-09-07T01:58:07.398Z,97174.77
2017-09-07T02:00:34.980Z,97167.97
2017-09-07T02:03:02.548Z,97170.48
2017-09-07T02:05:30.344Z,97167.08
2017-09-07T02:07:57.935Z,97175.62
2017-09-07T02:10:25.532Z,97170.48
2017-09-07T02:12:53.118Z,97166.66
2017-09-07T02:15:20.676Z,97165.81
2017-09-07T02:17:48.207Z,97167.94
2017-09-07T02:20:15.834Z,97160.71
2017-09-07T02:22:43.403Z,97163.31
2017-09-07T02:25:10.969Z,97145.42
2017-09-07T02:27:38.533Z,97150.13
2017-09-07T02:30:06.102Z,97157.37
2017-09-07T02:32:33.695Z,97156.95
2017-09-07T02:35:01.297Z,97153.51
2017-09-07T02:37:28.956Z,97156.52
2017-09-07T02:39:56.530Z,97158.63
2017-09-07T02:42:24.500Z,97161.18
2017-09-07T02:44:52.105Z,97159.92
2017-09-07T02:47:19.661Z,97167.58
2017-09-07T02:49:47.274Z,97162.91
2017-09-07T02:52:14.840Z,97165.88
2017-09-07T02:54:42.416Z,97161.64
2017-09-07T02:57:10.635Z,97155.27
2017-09-07T02:59:38.844Z,97156.55
2017-09-07T03:02:06.417Z,97150.56
2017-09-07T03:04:33.980Z,97157.83
2017-09-07T03:07:01.981Z,97157.81
2017-09-07T03:09:30.534Z,97148.91
2017-09-07T03:11:58.185Z,97148.45
2017-09-07T03:14:25.838Z,97161.65
2017-09-07T03:16:53.496Z,97143.78
2017-09-07T03:19:21.049Z,97144.65
2017-09-07T03:21:48.637Z,97143.41
2017-09-07T03:24:16.400Z,97142.08
2017-09-07T03:26:44.476Z,97147.63
2017-09-07T03:29:12.032Z,97148.91
2017-09-07T03:31:39.923Z,97144.26
2017-09-07T03:34:07.493Z,97149.36
2017-09-07T03:36:35.110Z,97147.25
2017-09-07T03:39:02.717Z,97145.98
2017-09-07T03:41:30.322Z,97140.42
2017-09-07T03:43:57.901Z,97142.56
2017-09-07T03:46:25.502Z,97137.90
2017-09-07T03:48:53.059Z,97138.77
2017-09-07T03:51:21.942Z,97140.47
2017-09-07T03:53:49.987Z,97151.95
2017-09-07T03:56:17.625Z,97150.25
2017-09-07T03:58:45.209Z,97154.09
2017-09-07T04:01:12.827Z,97151.55
2017-09-07T04:03:42.370Z,97151.13
2017-09-07T04:06:10.012Z,97155.80
2017-09-07T04:08:37.602Z,97153.67
2017-09-07T04:11:05.202Z,97152.83
2017-09-07T04:13:33.070Z,97153.23
2017-09-07T04:16:00.627Z,97153.69
2017-09-07T04:18:29.002Z,97149.02
2017-09-07T04:20:56.594Z,97145.17
2017-09-07T04:23:24.163Z,97155.35
2017-09-07T04:25:52.184Z,97159.63
2017-09-07T04:28:19.903Z,97164.72
2017-09-07T04:30:47.471Z,97161.75
2017-09-07T04:33:15.049Z,97161.73
2017-09-07T04:35:42.633Z,97160.90
2017-09-07T04:38:10.262Z,97160.91
2017-09-07T04:40:37.879Z,97161.75
2017-09-07T04:43:05.438Z,97165.13
2017-09-07T04:45:33.062Z,97167.27
2017-09-07T04:48:00.666Z,97158.78
2017-09-07T04:50:28.249Z,97158.78
2017-09-07T04:52:55.833Z,97166.86
2017-09-07T04:55:23.942Z,97161.33
2017-09-07T04:57:52.240Z,97166.00
2017-09-07T05:00:19.805Z,97163.45
2017-09-07T05:02:47.411Z,97164.73
2017-09-07T05:05:14.975Z,97159.18
2017-09-07T05:07:42.916Z,97159.63
2017-09-07T05:10:10.485Z,97166.86
2017-09-07T05:12:38.074Z,97169.83
2017-09-07T05:15:05.637Z,97165.59
2017-09-07T05:17:33.251Z,97163.43
2017-09-07T05:20:03.693Z,97171.09
2017-09-07T05:22:31.293Z,97173.20
2017-09-07T05:24:58.883Z,97176.19
2017-09-07T05:27:26.470Z,97175.78
2017-09-07T05:29:54.028Z,97180.03
2017-09-07T05:32:22.683Z,97175.77
2017-09-07T05:34:50.247Z,97179.59
2017-09-07T05:37:17.813Z,97177.90
2017-09-07T05:39:45.413Z,97177.47
2017-09-07T05:42:12.975Z,97179.59
2017-09-07T05:44:40.726Z,97175.77
2017-09-07T05:47:08.293Z,97178.74
2017-09-07T05:49:35.847Z,97174.08
2017-09-07T05:54:37.546Z,97176.62
2017-09-07T05:57:05.549Z,97159.63
2017-09-07T05:59:34.786Z,97172.40
2017-09-07T06:02:02.367Z,97169.86
2017-09-07T06:04:30.489Z,97177.48
2017-09-07T06:06:58.071Z,97174.52
2017-09-07T06:09:25.608Z,97171.13
2017-09-07T06:11:53.230Z,97171.98
2017-09-07T06:14:20.795Z,97171.53
2017-09-07T06:16:48.424Z,97175.81
2017-09-07T06:19:16.030Z,97169.00
2017-09-07T06:21:44.652Z,97172.83
2017-09-07T06:24:12.399Z,97170.23
2017-09-07T06:26:40.171Z,97170.66
2017-09-07T06:29:07.754Z,97171.52
2017-09-07T06:31:35.369Z,97180.87
2017-09-07T06:34:03.056Z,97176.18
2017-09-07T06:36:30.619Z,97171.91
2017-09-07T06:38:58.188Z,97162.12
2017-09-07T06:41:25.731Z,97166.80
2017-09-07T06:43:53.300Z,97156.59
2017-09-07T06:46:20.855Z,97155.72
2017-09-07T06:48:48.434Z,97157.39
2017-09-07T06:51:16.010Z,97158.23
2017-09-07T06:53:43.593Z,97161.62
2017-09-07T06:56:11.161Z,97166.71
2017-09-07T06:58:38.745Z,97169.69
2017-09-07T07:01:06.326Z,97177.33
2017-09-07T07:03:34.088Z,97170.09
2017-09-07T07:06:02.425Z,97168.79
2017-09-07T07:08:29.989Z,97169.21
2017-09-07T07:10:57.563Z,97171.79
2017-09-07T07:13:25.135Z,97176.91
2017-09-07T07:15:52.724Z,97173.48
2017-09-07T07:18:20.290Z,97170.94
2017-09-07T07:20:47.961Z,97170.47
2017-09-07T07:23:15.547Z,97172.98
2017-09-07T07:25:43.128Z,97170.35
2017-09-07T07:28:10.733Z,97164.31
2017-09-07T07:30:38.305Z,97167.23
2017-09-07T07:33:05.849Z,97167.55
2017-09-07T07:35:33.448Z,97162.84
2017-09-07T07:38:01.011Z,97172.63
2017-09-07T07:40:28.588Z,97174.31
2017-09-07T07:42:56.228Z,97176.53
2017-09-07T07:45:23.796Z,97177.25
2017-09-07T07:47:51.370Z,97179.65
2017-09-07T07:50:18.942Z,97183.70
2017-09-07T07:52:46.495Z,97185.23
2017-09-07T07:55:14.070Z,97182.64
2017-09-07T07:57:41.638Z,97183.94
2017-09-07T08:00:09.229Z,97189.23
2017-09-07T08:02:36.797Z,97185.00
2017-09-07T08:05:04.376Z,97192.70
2017-09-07T08:07:31.955Z,97191.92
2017-09-07T08:09:59.585Z,97195.69
2017-09-07T08:12:27.158Z,97192.59
2017-09-07T08:14:54.798Z,97192.06
2017-09-07T08:17:22.359Z,97188.94
2017-09-07T08:19:49.970Z,97191.02
2017-09-07T08:22:17.554Z,97192.72
2017-09-07T08:24:45.129Z,97192.23
2017-09-07T08:27:12.729Z,97195.11
2017-09-07T08:29:40.314Z,97190.45
2017-09-07T08:32:07.889Z,97201.27
2017-09-07T08:34:35.490Z,97196.14
2017-09-07T08:37:03.065Z,97196.42
2017-09-07T08:39:30.660Z,97194.95
2017-09-07T08:41:58.209Z,97193.19
2017-09-07T08:44:25.847Z,97195.41
2017-09-07T08:46:53.501Z,97191.62
2017-09-07T08:49:21.242Z,97183.41
2017-09-07T08:51:48.906Z,97183.27
2017-09-07T08:54:16.493Z,97181.97
2017-09-07T08:56:44.053Z,97184.09
2017-09-07T08:59:13.333Z,97182.33
2017-09-07T09:01:40.906Z,97179.58
2017-09-07T09:04:08.486Z,97179.44
2017-09-07T09:06:36.066Z,97178.34
2017-09-07T09:09:03.641Z,97180.01
2017-09-07T09:11:31.230Z,97174.42
2017-09-07T09:13:58.790Z,97182.08
2017-09-07T09:16:26.386Z,97173.08
2017-09-07T09:18:53.990Z,97173.41
2017-09-07T09:21:21.599Z,97166.98
2017-09-07T09:23:49.126Z,97174.66
2017-09-07T09:26:16.773Z,97172.06
2017-09-07T09:28:44.340Z,97173.78
2017-09-07T09:31:11.935Z,97173.27
2017-09-07T09:33:39.500Z,97173.49
2017-09-07T09:36:07.236Z,97167.36
2017-09-07T09:38:34.819Z,97164.45
2017-09-07T09:41:02.386Z,97159.06
2017-09-07T09:43:29.946Z,97162.42
2017-09-07T09:45:57.564Z,97164.42
2017-09-07T09:48:25.149Z,97153.36
2017-09-07T09:50:53.631Z,97160.41
2017-09-07T09:53:21.208Z,97155.80
2017-09-07T09:55:48.845Z,97148.80
2017-09-07T09:58:16.416Z,97152.07
2017-09-07T10:00:44.027Z,97148.22
2017-09-07T10:03:11.683Z,97147.81
2017-09-07T10:05:40.844Z,97142.64
2017-09-07T10:08:08.396Z,97142.78
2017-09-07T10:10:36.001Z,97144.59
2017-09-07T10:13:03.614Z,97143.17
2017-09-07T10:15:31.650Z,97134.64
2017-09-07T10:18:00.634Z,97132.00
2017-09-07T10:20:29.370Z,97135.74
2017-09-07T10:22:56.947Z,97133.06
2017-09-07T10:25:24.550Z,97132.09
2017-09-07T10:27:52.125Z,97137.16
2017-09-07T10:30:20.072Z,97129.67
2017-09-07T10:32:47.691Z,97135.20
2017-09-07T10:35:15.243Z,97133.42
2017-09-07T10:37:42.819Z,97129.33
2017-09-07T10:40:10.420Z,97133.03
2017-09-07T10:42:38.018Z,97124.81
2017-09-07T10:45:05.585Z,97121.64
2017-09-07T10:47:33.150Z,97124.28
2017-09-07T10:50:00.754Z,97114.96
2017-09-07T10:52:28.346Z,97111.83
2017-09-07T10:54:55.974Z,97105.11
2017-09-07T10:57:23.553Z,97106.83
2017-09-07T10:59:51.140Z,97105.03
2017-09-07T11:02:18.704Z,97100.19
2017-09-07T11:04:46.282Z,97107.72
2017-09-07T11:07:13.863Z,97102.84
2017-09-07T11:09:41.554Z,97099.45
2017-09-07T11:12:09.204Z,97102.55
2017-09-07T11:14:36.788Z,97101.72
2017-09-07T11:17:04.402Z,97102.14
2017-09-07T11:19:31.960Z,97097.78
2017-09-07T11:21:59.585Z,97100.48
2017-09-07T11:24:27.105Z,97090.61
2017-09-07T11:26:54.748Z,97096.06
2017-09-07T11:29:22.308Z,97093.19
2017-09-07T11:31:49.943Z,97098.68
2017-09-07T11:34:17.504Z,97102.27
2017-09-07T11:36:45.117Z,97095.28
2017-09-07T11:39:12.685Z,97096.78
2017-09-07T11:41:40.338Z,97099.78
2017-09-07T11:44:07.891Z,97095.61
2017-09-07T11:46:35.483Z,97094.67
2017-09-07T11:49:03.051Z,97089.19
2017-09-07T11:51:30.632Z,97088.80
2017-09-07T11:53:58.189Z,97087.27
2017-09-07T11:56:25.778Z,97085.47
2017-09-07T11:58:53.411Z,97084.33
2017-09-07T12:01:20.997Z,97080.55
2017-09-07T12:03:48.583Z,97079.95
2017-09-07T12:06:16.164Z,97089.78
2017-09-07T12:08:43.744Z,97079.78
2017-09-07T12:11:11.329Z,97073.73
2017-09-07T12:13:38.936Z,97079.92
2017-09-07T12:16:06.506Z,97081.42
2017-09-07T12:18:34.096Z,97080.04
2017-09-07T12:21:01.742Z,97082.97
2017-09-07T12:23:29.346Z,97083.36
2017-09-07T12:25:56.914Z,97085.98
2017-09-07T12:28:24.504Z,97089.34
2017-09-07T12:30:53.796Z,97081.77
2017-09-07T12:33:21.363Z,97083.75
2017-09-07T12:35:50.118Z,97076.70
2017-09-07T12:38:17.715Z,97071.20
2017-09-07T12:40:45.262Z,97072.63
2017-09-07T12:43:13.035Z,97066.57
2017-09-07T12:45:40.593Z,97060.78
2017-09-07T12:48:08.168Z,97055.94
2017-09-07T12:50:35.756Z,97060.91
2017-09-07T12:53:03.356Z,97057.39
2017-09-07T12:55:30.969Z,97053.36
2017-09-07T12:57:58.544Z,97049.19
2017-09-07T13:00:26.224Z,97053.73
2017-09-07T13:02:53.792Z,97046.10
2017-09-07T13:05:21.427Z,97050.13
2017-09-07T13:07:49.007Z,97046.05
2017-09-07T13:10:16.570Z,97043.63
2017-09-07T13:12:44.170Z,97045.95
2017-09-07T13:15:11.911Z,97043.68
2017-09-07T13:17:39.502Z,97043.09
2017-09-07T13:20:07.158Z,97045.83
2017-09-07T13:22:34.742Z,97036.77
2017-09-07T13:25:02.282Z,97036.77
2017-09-07T13:27:29.872Z,97033.61
2017-09-07T13:29:57.456Z,97032.41
2017-09-07T13:32:25.042Z,97024.73
2017-09-07T13:34:52.660Z,97032.03
2017-09-07T13:37:20.253Z,97029.28
2017-09-07T13:39:47.875Z,97028.78
2017-09-07T13:42:15.426Z,97031.91
2017-09-07T13:44:43.145Z,97023.38
2017-09-07T13:47:10.736Z,97019.09
2017-09-07T13:49:38.319Z,97015.82
2017-09-07T13:52:05.968Z,97016.36
2017-09-07T13:54:35.699Z,97010.19
2017-09-07T13:57:03.372Z,97009.30
2017-09-07T13:59:30.959Z,97009.46
2017-09-07T14:01:58.519Z,97005.17
2017-09-07T14:04:26.125Z,97009.75
2017-09-07T14:06:53.972Z,96998.30
2017-09-07T14:09:21.575Z,97005.98
2017-09-07T14:11:49.368Z,97002.74
2017-09-07T14:14:17.112Z,97000.84
2017-09-07T14:16:44.688Z,97010.12
2017-09-07T14:19:12.295Z,97001.80
2017-09-07T14:21:39.921Z,97003.39
2017-09-07T14:24:07.531Z,97002.03
2017-09-07T14:26:35.290Z,96998.73
2017-09-07T14:29:02.889Z,96995.96
2017-09-07T14:31:30.458Z,96998.73
2017-09-07T14:33:58.086Z,96999.50
2017-09-07T14:36:25.675Z,97004.23
2017-09-07T14:38:53.306Z,97000.28
2017-09-07T14:41:20.909Z,96996.28
2017-09-07T14:43:48.496Z,96997.59
2017-09-07T14:46:16.059Z,97000.59
2017-09-07T14:48:43.658Z,96995.14
2017-09-07T14:51:11.416Z,96988.44
2017-09-07T14:53:39.003Z,96988.53
2017-09-07T14:56:07.860Z,96983.94
2017-09-07T14:58:35.488Z,96985.23
2017-09-07T15:01:03.076Z,96987.95
2017-09-07T15:03:30.694Z,96990.81
2017-09-07T15:05:58.267Z,96982.02
2017-09-07T15:08:25.916Z,96984.94
2017-09-07T15:10:53.569Z,96978.94
2017-09-07T15:13:21.172Z,96971.95
2017-09-07T15:15:48.786Z,96980.82
2017-09-07T15:18:16.378Z,96970.17
2017-09-07T15:20:43.988Z,96972.39
2017-09-07T15:23:11.571Z,96976.51
2017-09-07T15:25:39.141Z,96976.00
2017-09-07T15:28:06.700Z,96974.70
2017-09-07T15:30:34.292Z,96969.28
2017-09-07T15:33:01.825Z,96963.62
2017-09-07T15:35:29.492Z,96963.62
2017-09-07T15:37:57.107Z,96964.09
2017-09-07T15:40:25.602Z,96961.36
2017-09-07T15:42:53.183Z,96959.77
2017-09-07T15:45:20.767Z,96963.59
2017-09-07T15:47:48.784Z,96963.38
2017-09-07T15:50:16.377Z,96964.05
2017-09-07T15:52:44.037Z,96965.11
2017-09-07T15:55:11.601Z,96963.48
2017-09-07T15:57:40.646Z,96957.88
2017-09-07T16:00:08.259Z,96963.35
2017-09-07T16:02:35.819Z,96963.55
2017-09-07T16:05:03.390Z,96958.70
2017-09-07T16:07:30.967Z,96956.41
2017-09-07T16:09:58.563Z,96956.30
2017-09-07T16:12:26.203Z,96953.10
2017-09-07T16:14:53.792Z,96948.28
2017-09-07T16:17:21.538Z,96947.06
2017-09-07T16:19:49.141Z,96940.17
2017-09-07T16:22:16.761Z,96950.33
2017-09-07T16:24:44.798Z,96949.00
2017-09-07T16:27:12.366Z,96949.94
2017-09-07T16:29:39.940Z,96954.04
2017-09-07T16:32:07.530Z,96952.37
2017-09-07T16:34:36.384Z,96953.23
2017-09-07T16:37:04.012Z,96954.13
2017-09-07T16:39:31.599Z,96959.34
2017-09-07T16:41:59.285Z,96954.56
2017-09-07T16:44:26.862Z,96954.76
2017-09-07T16:46:54.769Z,96955.22
2017-09-07T16:49:22.323Z,96957.52
2017-09-07T16:51:49.909Z,96951.72
2017-09-07T16:54:17.590Z,96957.75
2017-09-07T16:56:45.279Z,96958.25
2017-09-07T16:59:13.202Z,96958.71
2017-09-07T17:01:40.906Z,96967.02
2017-09-07T17:04:08.510Z,96965.45
2017-09-07T17:06:36.094Z,96965.48
2017-09-07T17:09:03.680Z,96970.23
2017-09-07T17:11:32.581Z,96973.72
2017-09-07T17:14:00.312Z,96976.42
2017-09-07T17:16:27.910Z,96972.28
2017-09-07T17:18:55.749Z,96978.80
2017-09-07T17:21:23.338Z,96978.44
2017-09-07T17:24:25.912Z,96982.41
2017-09-07T17:26:53.546Z,96983.82
2017-09-07T17:29:21.408Z,96990.76
2017-09-07T17:31:50.386Z,96990.91
2017-09-07T17:34:17.938Z,96991.42
2017-09-07T17:36:45.535Z,96996.64
2017-09-07T17:39:13.774Z,96998.44
2017-09-07T17:41:41.472Z,97000.26
2017-09-07T17:44:09.045Z,97002.54
2017-09-07T17:46:36.657Z,96999.20
2017-09-07T17:49:04.240Z,96998.42
2017-09-07T17:51:31.915Z,96996.83
2017-09-07T17:53:59.482Z,97002.91
2017-09-07T17:56:27.301Z,97007.23
2017-09-07T17:58:54.882Z,97003.89
2017-09-07T18:01:22.460Z,96999.69
2017-09-07T18:03:50.034Z,97001.47
2017-09-07T18:06:17.607Z,97003.68
2017-09-07T18:08:45.185Z,97011.43
2017-09-07T18:11:12.770Z,97013.66
2017-09-07T18:13:40.370Z,97009.50
2017-09-07T18:16:07.944Z,97013.81
2017-09-07T18:18:35.513Z,97007.92
2017-09-07T18:21:03.121Z,97013.55
2017-09-07T18:23:30.719Z,97016.15
2017-09-07T18:25:58.293Z,97015.78
2017-09-07T18:28:25.884Z,97017.10
2017-09-07T18:30:53.445Z,97013.34
2017-09-07T18:33:21.045Z,97018.94
2017-09-07T18:35:48.605Z,97019.84
2017-09-07T18:38:16.565Z,97024.98
2017-09-07T18:40:45.381Z,97026.30
2017-09-07T18:43:12.993Z,97031.90
2017-09-07T18:45:40.587Z,97036.59
2017-09-07T18:48:08.216Z,97031.98
2017-09-07T18:50:35.776Z,97026.48
2017-09-07T18:53:03.388Z,97030.80
2017-09-07T18:55:30.975Z,97038.96
2017-09-07T18:57:58.552Z,97044.11
2017-09-07T19:00:26.149Z,97044.22
2017-09-07T19:02:54.384Z,97041.72
2017-09-07T19:05:22.115Z,97053.69
2017-09-07T19:07:49.698Z,97045.73
2017-09-07T19:10:17.331Z,97054.69
2017-09-07T19:12:44.960Z,97055.60
2017-09-07T19:15:12.534Z,97059.92
2017-09-07T19:17:40.199Z,97064.20
2017-09-07T19:20:07.840Z,97063.34
2017-09-07T19:22:35.515Z,97073.58
2017-09-07T19:25:03.129Z,97074.42
2017-09-07T19:27:30.694Z,97073.14
2017-09-07T19:29:58.298Z,97080.35
2017-09-07T19:32:25.858Z,97081.23
2017-09-07T19:34:53.467Z,97078.25
2017-09-07T19:37:21.202Z,97073.14
2017-09-07T19:39:48.766Z,97077.84
2017-09-07T19:42:16.474Z,97073.18
2017-09-07T19:44:44.087Z,97072.31
2017-09-07T19:47:11.757Z,97069.33
2017-09-07T19:49:39.453Z,97060.42
2017-09-07T19:52:07.101Z,97057.88
2017-09-07T19:54:34.803Z,97059.58
2017-09-07T19:57:02.388Z,97056.62
2017-09-07T19:59:30.085Z,97058.75
2017-09-07T20:01:57.690Z,97062.61
2017-09-07T20:04:25.763Z,97065.16
2017-09-07T20:06:53.446Z,97066.89
2017-09-07T20:09:21.032Z,97070.31
2017-09-07T20:11:48.667Z,97075.42
2017-09-07T20:14:16.275Z,97076.70
2017-09-07T20:16:43.860Z,97084.34
2017-09-07T20:19:11.445Z,97087.33
2017-09-07T20:21:39.032Z,97082.24
2017-09-07T20:24:06.625Z,97084.36
2017-09-07T20:26:34.373Z,97080.11
2017-09-07T20:29:01.944Z,97083.52
2017-09-07T20:31:29.527Z,97082.23
2017-09-07T20:33:57.154Z,97078.82
2017-09-07T20:36:24.764Z,97081.39
2017-09-07T20:38:52.386Z,97080.11
2017-09-07T20:41:19.952Z,97078.41
2017-09-07T20:43:47.557Z,97079.27
2017-09-07T20:46:15.126Z,97083.92
2017-09-07T20:48:43.140Z,97083.52
2017-09-07T20:51:10.879Z,97092.83
2017-09-07T20:53:38.543Z,97083.08
2017-09-07T20:56:06.139Z,97082.66
2017-09-07T20:58:33.721Z,97083.08
2017-09-07T21:01:01.320Z,97080.92
2017-09-07T21:03:28.990Z,97074.55
2017-09-07T21:05:56.576Z,97072.87
2017-09-07T21:08:25.095Z,97066.52
2017-09-07T21:10:52.714Z,97072.02
2017-09-07T21:13:20.296Z,97079.70
2017-09-07T21:15:47.898Z,97073.28
2017-09-07T21:18:15.456Z,97067.77
2017-09-07T21:20:43.048Z,97067.73
2017-09-07T21:23:10.623Z,97065.60
2017-09-07T21:25:38.234Z,97072.41
2017-09-07T21:28:05.810Z,97066.87
2017-09-07T21:30:33.402Z,97064.31
2017-09-07T21:33:00.991Z,97060.49
2017-09-07T21:35:28.567Z,97059.63
2017-09-07T21:37:56.155Z,97051.95
2017-09-07T21:40:23.773Z,97042.61
2017-09-07T21:42:51.368Z,97037.50
2017-09-07T21:45:18.949Z,97042.59
2017-09-07T21:47:46.665Z,97033.66
2017-09-07T21:50:14.266Z,97019.20
2017-09-07T21:52:41.826Z,97017.11
2017-09-07T21:55:09.422Z,97016.68
2017-09-07T21:57:37.026Z,97014.98
2017-09-07T22:00:04.755Z,97014.97
2017-09-07T22:02:32.330Z,97015.83
2017-09-07T22:04:59.933Z,97018.42
2017-09-07T22:07:27.489Z,97017.12
2017-09-07T22:09:55.695Z,97012.87
2017-09-07T22:12:23.260Z,97014.15
2017-09-07T22:14:50.867Z,97017.16
2017-09-07T22:17:18.424Z,97017.14
2017-09-07T22:19:46.085Z,97012.03
2017-09-07T22:22:13.678Z,97013.72
2017-09-07T22:24:41.408Z,97012.45
2017-09-07T22:27:08.988Z,97015.41
2017-09-07T22:29:36.529Z,97009.46
2017-09-07T22:32:04.147Z,97006.92
2017-09-07T22:34:31.699Z,97012.87
2017-09-07T22:36:59.303Z,97000.97
2017-09-07T22:39:26.887Z,96998.41
2017-09-07T22:41:54.488Z,97009.05
2017-09-07T22:44:22.028Z,97004.38
2017-09-07T22:46:49.573Z,97005.23
2017-09-07T22:49:17.139Z,97005.25
2017-09-07T22:51:44.724Z,97002.71
2017-09-07T22:54:12.301Z,97005.67
2017-09-07T22:56:39.994Z,97001.42
2017-09-07T22:59:07.616Z,96997.57
2017-09-07T23:01:36.811Z,96998.87
2017-09-07T23:04:05.832Z,97001.00
2017-09-07T23:06:33.415Z,97007.38
2017-09-07T23:09:00.967Z,97006.09
2017-09-07T23:11:28.528Z,97000.98
2017-09-07T23:13:56.125Z,96995.45
2017-09-07T23:16:23.702Z,96999.27
2017-09-07T23:18:51.613Z,97000.98
2017-09-07T23:21:19.172Z,96992.92
2017-09-07T23:23:46.791Z,96989.09
2017-09-07T23:26:14.438Z,96993.36
2017-09-07T23:28:42.029Z,96986.58
2017-09-07T23:31:09.647Z,96983.19
2017-09-07T23:33:37.215Z,96986.59
2017-09-07T23:36:05.145Z,96981.92
2017-09-07T23:38:32.713Z,96985.77
2017-09-07T23:41:00.405Z,96988.33
2017-09-07T23:43:28.160Z,96984.48
2017-09-07T23:45:55.721Z,96975.14
2017-09-07T23:48:23.336Z,96978.98
2017-09-07T23:50:50.918Z,96973.45
2017-09-07T23:53:18.730Z,96972.19
2017-09-07T23:55:46.290Z,96967.50
2017-09-07T23:58:13.852Z,96958.59
